createdAt,value
2022-10-17T00:01:54.490Z,11.93
2022-10-17T00:04:21.965Z,11.65
2022-10-17T00:06:49.393Z,11.50
2022-10-17T00:09:16.802Z,11.57
2022-10-17T00:11:44.178Z,10.15
2022-10-17T00:14:11.657Z,8.75
2022-10-17T00:16:39.015Z,14.30
2022-10-17T00:19:07.855Z,8.48
2022-10-17T00:21:35.265Z,10.25
2022-10-17T00:24:02.709Z,15.63
2022-10-17T00:26:30.425Z,10.13
2022-10-17T00:28:57.883Z,8.40
2022-10-17T00:31:25.651Z,9.63
2022-10-17T00:33:53.137Z,8.07
2022-10-17T00:36:22.858Z,8.45
2022-10-17T00:38:51.459Z,9.55
2022-10-17T00:41:19.759Z,8.32
2022-10-17T00:43:50.803Z,9.82
2022-10-17T00:46:18.181Z,11.00
2022-10-17T00:48:46.311Z,11.65
2022-10-17T00:51:13.689Z,9.98
2022-10-17T00:53:42.533Z,12.02
2022-10-17T00:56:10.065Z,9.30
2022-10-17T00:58:37.477Z,10.98
2022-10-17T01:01:04.967Z,10.88
2022-10-17T01:03:32.392Z,10.27
2022-10-17T01:05:59.886Z,8.45
2022-10-17T01:08:27.236Z,12.00
2022-10-17T01:10:59.538Z,8.23
2022-10-17T01:13:31.063Z,9.13
2022-10-17T01:16:03.841Z,8.82
2022-10-17T01:18:38.386Z,10.40
2022-10-17T01:21:13.916Z,7.80
2022-10-17T01:23:55.360Z,9.43
2022-10-17T01:26:27.452Z,11.05
2022-10-17T01:29:04.648Z,8.70
2022-10-17T01:31:35.648Z,7.70
2022-10-17T01:34:05.629Z,9.57
2022-10-17T01:36:37.813Z,8.27
2022-10-17T01:39:09.032Z,9.50
2022-10-17T01:41:38.811Z,7.60
2022-10-17T01:44:09.432Z,6.80
2022-10-17T01:46:39.157Z,8.75
2022-10-17T01:49:07.804Z,7.45
2022-10-17T01:51:37.262Z,9.02
2022-10-17T01:54:08.179Z,7.80
2022-10-17T01:59:05.830Z,7.88
2022-10-17T02:01:33.588Z,9.20
2022-10-17T02:04:03.491Z,6.53
2022-10-17T02:06:34.987Z,7.03
2022-10-17T02:09:02.393Z,7.13
2022-10-17T02:11:29.722Z,6.43
2022-10-17T02:16:42.325Z,7.53
2022-10-17T02:19:21.159Z,8.00
2022-10-17T02:21:52.234Z,6.07
2022-10-17T02:24:21.202Z,7.85
2022-10-17T02:26:53.733Z,9.68
2022-10-17T02:29:22.907Z,6.72
2022-10-17T02:31:52.367Z,10.35
2022-10-17T02:34:22.543Z,6.35
2022-10-17T02:36:51.688Z,6.57
2022-10-17T02:39:20.045Z,6.07
2022-10-17T02:41:48.930Z,6.95
2022-10-17T02:44:16.942Z,6.10
2022-10-17T02:46:45.946Z,7.78
2022-10-17T02:49:17.502Z,6.82
2022-10-17T02:51:48.869Z,6.95
2022-10-17T02:54:19.862Z,6.03
2022-10-17T02:56:50.463Z,11.23
2022-10-17T02:59:19.760Z,8.23
2022-10-17T03:01:47.113Z,7.00
2022-10-17T03:04:15.510Z,5.40
2022-10-17T03:06:43.069Z,5.65
2022-10-17T03:09:11.759Z,7.28
2022-10-17T03:11:39.150Z,5.78
2022-10-17T03:14:06.570Z,6.25
2022-10-17T03:16:33.954Z,7.78
2022-10-17T03:19:01.394Z,8.10
2022-10-17T03:21:28.762Z,7.22
2022-10-17T03:23:56.094Z,8.55
2022-10-17T03:26:24.898Z,9.68
2022-10-17T03:28:54.444Z,8.75
2022-10-17T03:31:22.444Z,7.90
2022-10-17T03:33:49.775Z,7.18
2022-10-17T03:36:17.975Z,7.53
2022-10-17T03:38:45.626Z,8.30
2022-10-17T03:41:13.302Z,6.38
2022-10-17T03:43:42.235Z,8.35
2022-10-17T03:46:09.712Z,8.63
2022-10-17T03:48:37.170Z,7.22
2022-10-17T03:51:05.741Z,7.18
2022-10-17T03:53:33.108Z,8.23
2022-10-17T03:56:09.666Z,7.70
2022-10-17T03:58:36.989Z,8.00
2022-10-17T04:01:06.255Z,7.22
2022-10-17T04:03:34.017Z,6.35
2022-10-17T04:06:01.459Z,7.10
2022-10-17T04:08:28.842Z,10.27
2022-10-17T04:10:58.994Z,9.32
2022-10-17T04:13:26.397Z,7.25
2022-10-17T04:15:56.833Z,7.40
2022-10-17T04:18:26.080Z,7.15
2022-10-17T04:20:53.481Z,7.32
2022-10-17T04:23:21.163Z,6.82
2022-10-17T04:25:48.531Z,12.80
2022-10-17T04:28:16.009Z,7.57
2022-10-17T04:30:45.476Z,7.97
2022-10-17T04:33:13.148Z,7.78
2022-10-17T04:35:41.832Z,7.50
2022-10-17T04:38:09.241Z,10.00
2022-10-17T04:40:37.379Z,7.50
2022-10-17T04:43:04.755Z,7.53
2022-10-17T04:45:32.084Z,8.80
2022-10-17T04:47:59.454Z,11.40
2022-10-17T04:50:26.792Z,10.82
2022-10-17T04:52:55.473Z,10.38
2022-10-17T04:55:22.833Z,9.00
2022-10-17T04:57:50.225Z,8.02
2022-10-17T05:00:17.820Z,10.00
2022-10-17T05:02:45.146Z,8.27
2022-10-17T05:05:12.494Z,9.20
2022-10-17T05:07:40.702Z,9.27
2022-10-17T05:10:09.985Z,7.90
2022-10-17T05:12:37.344Z,8.15
2022-10-17T05:15:05.079Z,7.88
2022-10-17T05:17:32.504Z,7.53
2022-10-17T05:19:59.865Z,7.55
2022-10-17T05:22:27.544Z,10.30
2022-10-17T05:24:55.103Z,8.98
2022-10-17T05:27:23.870Z,9.10
2022-10-17T05:29:51.239Z,8.35
2022-10-17T05:32:18.659Z,10.02
2022-10-17T05:34:45.966Z,8.80
2022-10-17T05:37:13.354Z,8.93
2022-10-17T05:39:40.889Z,8.07
2022-10-17T05:42:08.352Z,9.18
2022-10-17T05:44:37.040Z,11.00
2022-10-17T05:47:04.423Z,9.82
2022-10-17T05:49:43.598Z,8.57
2022-10-17T05:52:13.590Z,9.00
2022-10-17T05:54:40.956Z,8.52
2022-10-17T05:57:08.290Z,11.57
2022-10-17T05:59:37.040Z,10.73
2022-10-17T06:02:04.404Z,8.60
2022-10-17T06:04:31.820Z,10.68
2022-10-17T06:06:59.231Z,10.10
2022-10-17T06:09:26.631Z,7.80
2022-10-17T06:11:54.021Z,11.98
2022-10-17T06:14:21.694Z,9.30
2022-10-17T06:16:50.442Z,11.98
2022-10-17T06:19:17.872Z,9.82
2022-10-17T06:21:45.230Z,10.18
2022-10-17T06:24:12.626Z,10.52
2022-10-17T06:26:40.023Z,11.15
2022-10-17T06:29:07.470Z,9.95
2022-10-17T06:31:34.949Z,9.75
2022-10-17T06:34:03.647Z,12.85
2022-10-17T06:36:31.006Z,12.48
2022-10-17T06:38:58.418Z,11.73
2022-10-17T06:41:25.774Z,12.45
2022-10-17T06:43:53.144Z,11.45
2022-10-17T06:46:20.495Z,12.57
2022-10-17T06:48:47.902Z,11.23
2022-10-17T06:51:16.823Z,10.30
2022-10-17T06:53:44.177Z,11.23
2022-10-17T06:56:11.588Z,14.75
2022-10-17T06:58:39.980Z,10.20
2022-10-17T07:03:41.258Z,11.73
2022-10-17T07:06:10.943Z,8.85
2022-10-17T07:08:43.132Z,11.40
2022-10-17T07:11:11.069Z,10.82
2022-10-17T07:13:39.396Z,12.18
2022-10-17T07:16:07.233Z,11.50
2022-10-17T07:18:34.916Z,10.23
2022-10-17T07:21:02.486Z,11.73
2022-10-17T07:23:29.838Z,12.07
2022-10-17T07:26:02.276Z,9.43
2022-10-17T07:28:29.678Z,8.70
2022-10-17T07:30:57.049Z,8.77
2022-10-17T07:33:24.377Z,10.73
2022-10-17T07:35:53.188Z,10.32
2022-10-17T07:38:20.655Z,12.38
2022-10-17T07:40:54.478Z,10.70
2022-10-17T07:43:23.180Z,17.50
2022-10-17T07:45:50.610Z,17.05
2022-10-17T07:48:18.028Z,18.98
2022-10-17T07:50:45.560Z,14.27
2022-10-17T07:53:13.228Z,11.32
2022-10-17T07:55:40.918Z,10.85
2022-10-17T07:58:08.999Z,27.25
2022-10-17T08:00:38.111Z,9.43
2022-10-17T08:03:05.687Z,21.40
2022-10-17T08:05:33.074Z,10.00
2022-10-17T08:08:00.610Z,12.10
2022-10-17T08:10:29.590Z,7.60
2022-10-17T08:12:57.412Z,9.75
2022-10-17T08:15:27.967Z,12.73
2022-10-17T08:17:59.776Z,9.00
2022-10-17T08:20:27.352Z,8.15
2022-10-17T08:22:55.189Z,5.10
2022-10-17T08:25:22.891Z,10.48
2022-10-17T08:27:50.371Z,6.72
2022-10-17T08:30:17.854Z,13.45
2022-10-17T08:32:45.237Z,5.90
2022-10-17T08:35:14.667Z,5.80
2022-10-17T08:37:42.096Z,7.30
2022-10-17T08:40:15.635Z,6.07
2022-10-17T08:42:51.964Z,5.53
2022-10-17T08:45:21.956Z,4.80
2022-10-17T08:47:52.563Z,5.15
2022-10-17T08:50:25.084Z,5.75
2022-10-17T08:52:54.048Z,5.20
2022-10-17T08:55:25.803Z,6.97
2022-10-17T08:57:53.195Z,4.28
2022-10-17T09:00:21.714Z,6.85
2022-10-17T09:02:55.320Z,4.97
2022-10-17T09:05:28.007Z,6.28
2022-10-17T09:07:59.963Z,5.45
2022-10-17T09:10:30.919Z,6.95
2022-10-17T09:13:08.907Z,6.47
2022-10-17T09:15:41.693Z,7.55
2022-10-17T09:18:12.413Z,5.43
2022-10-17T09:20:43.050Z,5.32
2022-10-17T09:23:13.322Z,7.60
2022-10-17T09:25:42.849Z,6.55
2022-10-17T09:28:13.486Z,4.97
2022-10-17T09:30:45.958Z,5.93
2022-10-17T09:33:28.277Z,5.55
2022-10-17T09:36:04.020Z,11.88
2022-10-17T09:38:35.547Z,5.80
2022-10-17T09:41:06.583Z,4.65
2022-10-17T09:43:40.164Z,4.72
2022-10-17T09:46:09.482Z,6.55
2022-10-17T09:48:39.404Z,7.22
2022-10-17T09:51:15.080Z,4.30
2022-10-17T09:53:55.406Z,6.28
2022-10-17T09:56:23.001Z,9.50
2022-10-17T09:58:52.747Z,5.38
2022-10-17T10:01:23.983Z,7.50
2022-10-17T10:04:06.796Z,7.32
2022-10-17T10:06:35.542Z,6.32
2022-10-17T10:09:05.010Z,4.53
2022-10-17T10:11:46.136Z,4.93
2022-10-17T10:14:14.371Z,5.88
2022-10-17T10:16:43.199Z,4.15
2022-10-17T10:19:20.507Z,8.25
2022-10-17T10:21:55.799Z,4.55
2022-10-17T10:24:26.935Z,5.65
2022-10-17T10:26:58.543Z,5.88
2022-10-17T10:29:30.700Z,6.32
2022-10-17T10:31:59.592Z,7.95
2022-10-17T10:34:27.931Z,5.93
2022-10-17T10:37:01.879Z,6.10
2022-10-17T10:39:32.742Z,4.88
2022-10-17T10:42:00.637Z,4.18
2022-10-17T10:44:29.908Z,3.80
2022-10-17T10:47:15.300Z,7.40
2022-10-17T10:49:42.756Z,4.32
2022-10-17T10:52:14.930Z,6.25
2022-10-17T10:54:44.859Z,5.70
2022-10-17T10:57:19.934Z,5.22
2022-10-17T10:59:52.578Z,6.03
2022-10-17T11:02:23.102Z,5.15
2022-10-17T11:04:57.543Z,10.10
2022-10-17T11:07:29.287Z,4.07
2022-10-17T11:09:59.430Z,4.78
2022-10-17T11:12:29.721Z,4.43
2022-10-17T11:14:58.606Z,8.25
2022-10-17T11:17:30.510Z,4.50
2022-10-17T11:20:03.502Z,3.65
2022-10-17T11:22:33.288Z,3.53
2022-10-17T11:25:04.659Z,4.43
2022-10-17T11:27:32.368Z,7.00
2022-10-17T11:30:00.002Z,3.80
2022-10-17T11:32:31.330Z,7.45
2022-10-17T11:35:00.777Z,5.22
2022-10-17T11:37:29.643Z,11.13
2022-10-17T11:40:01.580Z,6.68
2022-10-17T11:42:31.177Z,5.72
2022-10-17T11:47:30.789Z,6.18
2022-10-17T11:51:59.838Z,5.13
2022-10-17T11:52:56.584Z,5.68
2022-10-17T11:55:26.675Z,7.78
2022-10-17T11:58:01.746Z,6.60
2022-10-17T12:00:32.647Z,5.07
2022-10-17T12:03:06.355Z,5.32
2022-10-17T12:05:35.323Z,5.18
2022-10-17T12:08:06.369Z,10.82
2022-10-17T12:10:40.839Z,6.13
2022-10-17T12:13:29.262Z,9.20
2022-10-17T12:15:56.927Z,7.13
2022-10-17T12:18:25.336Z,5.63
2022-10-17T12:20:56.918Z,5.85
2022-10-17T12:23:26.766Z,5.28
2022-10-17T12:28:28.294Z,5.13
2022-10-17T12:30:57.358Z,8.68
2022-10-17T12:33:28.015Z,5.22
2022-10-17T12:36:10.248Z,6.13
2022-10-17T12:38:37.563Z,6.97
2022-10-17T12:41:06.361Z,7.82
2022-10-17T12:43:40.542Z,6.57
2022-10-17T12:46:11.987Z,6.45
2022-10-17T12:49:01.973Z,5.47
2022-10-17T12:51:37.908Z,6.47
2022-10-17T12:56:36.951Z,6.25
2022-10-17T12:59:09.233Z,4.88
2022-10-17T13:01:38.233Z,5.35
2022-10-17T13:04:06.549Z,4.95
2022-10-17T13:06:37.746Z,5.57
2022-10-17T13:09:06.259Z,4.93
2022-10-17T13:11:35.601Z,4.88
2022-10-17T13:14:04.084Z,7.07
2022-10-17T13:16:34.768Z,6.72
2022-10-17T13:19:02.889Z,6.47
2022-10-17T13:21:30.612Z,5.30
2022-10-17T13:23:58.008Z,6.10
2022-10-17T13:26:26.250Z,6.07
2022-10-17T13:29:03.352Z,7.90
2022-10-17T13:31:32.226Z,4.70
2022-10-17T13:34:01.642Z,5.22
2022-10-17T13:36:29.964Z,5.88
2022-10-17T13:38:58.504Z,5.45
2022-10-17T13:41:35.866Z,8.43
2022-10-17T13:44:05.081Z,4.28
2022-10-17T13:46:38.416Z,6.57
2022-10-17T13:49:13.713Z,7.40
2022-10-17T13:51:43.954Z,4.88
2022-10-17T13:54:18.665Z,4.63
2022-10-17T13:56:46.387Z,7.03
2022-10-17T13:59:22.618Z,4.30
2022-10-17T14:01:50.216Z,6.30
2022-10-17T14:04:20.335Z,4.85
2022-10-17T14:06:51.164Z,4.82
2022-10-17T14:09:21.630Z,4.63
2022-10-17T14:11:57.830Z,5.30
2022-10-17T14:16:53.275Z,4.45
2022-10-17T14:19:25.018Z,4.57
2022-10-17T14:21:54.181Z,7.30
2022-10-17T14:24:29.172Z,7.03
2022-10-17T14:26:58.711Z,5.40
2022-10-17T14:29:26.965Z,6.10
2022-10-17T14:32:02.742Z,4.82
2022-10-17T14:34:34.002Z,6.18
2022-10-17T14:37:01.799Z,5.70
2022-10-17T14:39:29.450Z,4.05
2022-10-17T14:41:59.681Z,10.43
2022-10-17T14:44:31.670Z,5.82
2022-10-17T14:47:06.007Z,4.47
2022-10-17T14:49:39.223Z,6.70
2022-10-17T14:52:25.159Z,6.75
2022-10-17T14:54:52.844Z,6.03
2022-10-17T14:57:22.927Z,6.47
2022-10-17T14:59:55.163Z,4.80
2022-10-17T15:02:23.151Z,4.50
2022-10-17T15:04:51.923Z,6.22
2022-10-17T15:07:20.977Z,7.57
2022-10-17T15:09:49.453Z,4.05
2022-10-17T15:12:18.055Z,6.03
2022-10-17T15:14:45.628Z,6.55
2022-10-17T15:17:14.952Z,6.45
2022-10-17T15:19:42.450Z,7.57
2022-10-17T15:22:11.202Z,8.10
2022-10-17T15:24:38.531Z,7.70
2022-10-17T15:27:07.789Z,5.28
2022-10-17T15:29:35.196Z,5.53
2022-10-17T15:32:02.567Z,7.57
2022-10-17T15:34:29.966Z,6.97
2022-10-17T15:36:57.336Z,7.18
2022-10-17T15:39:26.100Z,10.93
2022-10-17T15:41:53.524Z,5.57
2022-10-17T15:44:20.841Z,7.75
2022-10-17T15:46:48.281Z,6.95
2022-10-17T15:49:17.191Z,8.13
2022-10-17T15:51:44.549Z,9.05
2022-10-17T15:56:42.575Z,6.63
2022-10-17T15:59:13.214Z,8.95
2022-10-17T16:01:40.765Z,7.43
2022-10-17T16:04:12.551Z,7.05
2022-10-17T16:06:40.010Z,7.35
2022-10-17T16:09:07.373Z,10.20
2022-10-17T16:11:36.350Z,9.85
2022-10-17T16:14:06.698Z,6.05
2022-10-17T16:16:34.283Z,8.30
2022-10-17T16:19:02.457Z,7.38
2022-10-17T16:24:03.455Z,5.45
2022-10-17T16:26:30.926Z,7.70
2022-10-17T16:29:02.558Z,6.18
2022-10-17T16:31:32.969Z,7.38
2022-10-17T16:36:27.702Z,7.93
2022-10-17T16:38:55.159Z,7.07
2022-10-17T16:41:24.244Z,7.03
2022-10-17T16:43:52.254Z,10.68
2022-10-17T16:46:19.718Z,8.95
2022-10-17T16:48:48.672Z,7.60
2022-10-17T16:51:18.002Z,7.15
2022-10-17T16:53:45.643Z,7.55
2022-10-17T16:56:14.163Z,7.70
2022-10-17T16:58:41.883Z,7.20
2022-10-17T17:01:10.542Z,7.72
2022-10-17T17:03:38.513Z,5.38
2022-10-17T17:06:07.772Z,9.45
2022-10-17T17:08:37.025Z,13.27
2022-10-17T17:11:06.856Z,8.27
2022-10-17T17:13:34.248Z,7.00
2022-10-17T17:16:05.081Z,8.02
2022-10-17T17:18:32.499Z,6.13
2022-10-17T17:21:00.517Z,8.02
2022-10-17T17:23:29.628Z,5.95
2022-10-17T17:26:00.501Z,9.77
2022-10-17T17:28:28.482Z,8.52
2022-10-17T17:30:56.208Z,7.65
2022-10-17T17:33:24.018Z,8.40
2022-10-17T17:35:55.236Z,7.07
2022-10-17T17:38:22.586Z,10.07
2022-10-17T17:40:51.810Z,7.63
2022-10-17T17:43:19.314Z,8.57
2022-10-17T17:45:46.764Z,7.80
2022-10-17T17:48:14.320Z,9.85
2022-10-17T17:50:42.382Z,14.20
2022-10-17T17:53:10.586Z,7.88
2022-10-17T17:55:38.138Z,11.10
2022-10-17T17:58:08.126Z,6.47
2022-10-17T18:00:35.893Z,8.77
2022-10-17T18:03:03.290Z,8.10
2022-10-17T18:05:30.879Z,9.88
2022-10-17T18:07:58.250Z,10.13
2022-10-17T18:10:25.587Z,7.80
2022-10-17T18:12:53.126Z,6.72
2022-10-17T18:15:22.085Z,11.82
2022-10-17T18:17:49.524Z,10.18
2022-10-17T18:20:16.900Z,8.88
2022-10-17T18:22:44.273Z,8.02
2022-10-17T18:25:11.649Z,11.05
2022-10-17T18:27:39.004Z,8.13
2022-10-17T18:30:08.471Z,9.15
2022-10-17T18:32:37.283Z,8.05
2022-10-17T18:35:04.700Z,8.43
2022-10-17T18:37:32.191Z,8.25
2022-10-17T18:39:59.620Z,10.30
2022-10-17T18:42:27.227Z,11.15
2022-10-17T18:44:54.649Z,6.22
2022-10-17T18:47:22.003Z,7.65
2022-10-17T18:49:50.756Z,7.45
2022-10-17T18:52:18.205Z,8.63
2022-10-17T18:54:45.595Z,10.32
2022-10-17T18:57:13.030Z,7.40
2022-10-17T18:59:40.377Z,7.65
2022-10-17T19:02:09.755Z,11.90
2022-10-17T19:04:37.182Z,10.90
2022-10-17T19:07:05.924Z,14.35
2022-10-17T19:09:33.351Z,10.40
2022-10-17T19:12:00.712Z,9.57
2022-10-17T19:14:28.626Z,9.98
2022-10-17T19:16:57.148Z,8.32
2022-10-17T19:19:25.152Z,9.80
2022-10-17T19:21:52.879Z,9.00
2022-10-17T19:24:22.394Z,7.32
2022-10-17T19:26:50.602Z,9.55
2022-10-17T19:29:18.725Z,11.68
2022-10-17T19:31:46.634Z,8.20
2022-10-17T19:34:14.516Z,9.52
2022-10-17T19:36:42.326Z,10.48
2022-10-17T19:39:12.772Z,9.63
2022-10-17T19:41:42.067Z,9.82
2022-10-17T19:44:09.517Z,8.18
2022-10-17T19:46:36.895Z,8.52
2022-10-17T19:49:04.711Z,10.88
2022-10-17T19:51:32.468Z,7.60
2022-10-17T19:54:00.996Z,8.60
2022-10-17T19:56:29.003Z,7.53
2022-10-17T19:58:58.142Z,9.95
2022-10-17T20:01:26.176Z,8.80
2022-10-17T20:03:54.129Z,10.30
2022-10-17T20:06:22.034Z,11.15
2022-10-17T20:08:49.780Z,11.18
2022-10-17T20:11:18.026Z,14.27
2022-10-17T20:13:45.750Z,10.45
2022-10-17T20:16:15.284Z,13.35
2022-10-17T20:18:42.734Z,13.93
2022-10-17T20:21:14.793Z,11.65
2022-10-17T20:23:42.541Z,11.10
2022-10-17T20:26:26.032Z,11.30
2022-10-17T20:29:00.920Z,11.07
2022-10-17T20:31:29.745Z,10.77
2022-10-17T20:33:57.372Z,11.35
2022-10-17T20:36:25.330Z,12.40
2022-10-17T20:38:56.231Z,13.93
2022-10-17T20:41:23.852Z,11.70
2022-10-17T20:43:51.796Z,14.00
2022-10-17T20:46:29.764Z,11.60
2022-10-17T20:49:04.657Z,13.40
2022-10-17T20:51:32.010Z,12.57
2022-10-17T20:53:59.515Z,11.57
2022-10-17T20:56:27.866Z,12.18
2022-10-17T20:58:55.948Z,11.65
2022-10-17T21:01:23.824Z,17.83
2022-10-17T21:03:51.329Z,18.15
2022-10-17T21:06:20.242Z,16.20
2022-10-17T21:08:48.242Z,22.95
2022-10-17T21:11:16.630Z,19.85
2022-10-17T21:13:44.299Z,19.70
2022-10-17T21:16:12.592Z,13.43
2022-10-17T21:18:40.321Z,13.55
2022-10-17T21:21:09.092Z,11.50
2022-10-17T21:23:38.081Z,12.63
2022-10-17T21:26:07.101Z,11.75
2022-10-17T21:28:35.223Z,14.80
2022-10-17T21:31:09.510Z,16.10
2022-10-17T21:33:36.909Z,23.60
2022-10-17T21:36:04.468Z,13.60
2022-10-17T21:38:31.864Z,19.23
2022-10-17T21:41:00.616Z,21.88
2022-10-17T21:43:27.979Z,12.40
2022-10-17T21:45:55.364Z,14.80
2022-10-17T21:48:22.835Z,16.98
2022-10-17T21:50:50.208Z,15.35
2022-10-17T21:53:17.548Z,12.32
2022-10-17T21:55:44.933Z,17.83
2022-10-17T21:58:13.681Z,16.52
2022-10-17T22:00:41.120Z,17.30
2022-10-17T22:03:09.501Z,16.42
2022-10-17T22:05:36.876Z,20.92
2022-10-17T22:08:04.315Z,16.83
2022-10-17T22:10:31.673Z,17.80
2022-10-17T22:12:59.050Z,16.02
2022-10-17T22:15:27.738Z,19.92
2022-10-17T22:17:55.128Z,17.10
2022-10-17T22:20:22.537Z,18.88
2022-10-17T22:22:49.918Z,14.82
2022-10-17T22:25:17.286Z,20.30
2022-10-17T22:27:44.717Z,22.05
2022-10-17T22:30:12.569Z,18.20
2022-10-17T22:32:41.367Z,16.35
2022-10-17T22:35:08.969Z,17.67
2022-10-17T22:37:36.365Z,18.25
2022-10-17T22:40:03.894Z,19.13
2022-10-17T22:42:34.312Z,20.83
2022-10-17T22:45:02.511Z,17.13
2022-10-17T22:47:30.771Z,18.23
2022-10-17T22:49:59.680Z,18.00
2022-10-17T22:52:27.209Z,21.00
2022-10-17T22:54:54.615Z,16.80
2022-10-17T22:57:21.999Z,21.20
2022-10-17T22:59:49.367Z,17.10
2022-10-17T23:02:16.741Z,17.38
2022-10-17T23:04:44.109Z,17.38
2022-10-17T23:07:14.174Z,21.70
2022-10-17T23:09:42.258Z,20.13
2022-10-17T23:12:09.818Z,17.65
2022-10-17T23:14:38.443Z,17.77
2022-10-17T23:17:05.916Z,18.00
2022-10-17T23:19:33.913Z,20.23
2022-10-17T23:22:01.490Z,17.98
2022-10-17T23:24:30.178Z,21.92
2022-10-17T23:26:57.530Z,20.45
2022-10-17T23:29:25.501Z,17.10
2022-10-17T23:31:54.871Z,16.80
2022-10-17T23:34:22.547Z,19.67
2022-10-17T23:36:49.872Z,16.13
2022-10-17T23:39:17.282Z,20.98
2022-10-17T23:41:46.005Z,18.73
2022-10-17T23:44:13.763Z,15.88
2022-10-17T23:46:41.110Z,20.33
2022-10-17T23:49:08.479Z,21.13
2022-10-17T23:51:35.982Z,20.92
2022-10-17T23:54:04.599Z,18.77
2022-10-17T23:56:31.948Z,19.50
2022-10-17T23:59:00.773Z,18.05
